createdAt,value
2023-01-30T00:07:57.382Z,2.8
2023-01-30T00:17:59.302Z,2.9
2023-01-30T00:28:01.674Z,2.9
2023-01-30T00:38:04.228Z,3
2023-01-30T00:58:08.019Z,3.1
2023-01-30T00:59:35.412Z,3.1
2023-01-30T01:08:18.025Z,3.1
2023-01-30T01:18:20.350Z,3.2
2023-01-30T01:28:22.297Z,3.1
2023-01-30T01:38:24.019Z,3.2
2023-01-30T01:48:26.444Z,3.3
2023-01-30T01:58:28.683Z,3.3
2023-01-30T02:08:30.062Z,3.4
2023-01-30T02:18:31.995Z,3.4
2023-01-30T02:28:34.673Z,3.5
2023-01-30T02:38:36.569Z,3.7
2023-01-30T02:58:41.280Z,4
2023-01-30T03:08:43.366Z,4.2
2023-01-30T03:18:45.765Z,4.4
2023-01-30T03:28:47.489Z,4.6
2023-01-30T03:38:49.406Z,4.6
2023-01-30T03:48:51.700Z,4.6
2023-01-30T03:58:53.629Z,4.6
2023-01-30T04:08:55.941Z,4.6
2023-01-30T04:18:58.160Z,4.6
2023-01-30T04:29:00.382Z,4.6
2023-01-30T04:39:02.367Z,4.6
2023-01-30T04:49:04.350Z,4.6
2023-01-30T04:59:06.846Z,4.7
2023-01-30T05:09:09.360Z,4.7
2023-01-30T05:19:11.523Z,4.9
2023-01-30T05:29:13.447Z,4.9
2023-01-30T05:49:17.704Z,5
2023-01-30T06:09:22.329Z,5.2
2023-01-30T06:19:24.258Z,5.4
2023-01-30T06:29:26.223Z,5.6
2023-01-30T06:49:30.959Z,5.8
2023-01-30T06:59:33.239Z,5.8
2023-01-30T07:09:35.114Z,6
2023-01-30T07:19:37.134Z,6.1
2023-01-30T07:29:39.208Z,6.2
2023-01-30T07:39:41.215Z,6.1
2023-01-30T08:29:51.474Z,6.2
2023-01-30T08:39:53.940Z,6.2
2023-01-30T09:20:02.381Z,6.3
2023-01-30T09:30:05.044Z,6.3
2023-01-30T10:00:11.272Z,6.3
2023-01-30T10:20:15.561Z,6.5
2023-01-30T10:40:20.372Z,6.4
2023-01-30T10:50:22.662Z,6.6
2023-01-30T11:00:24.449Z,6.6
2023-01-30T11:10:26.718Z,6.6
2023-01-30T11:30:30.589Z,6.6
2023-01-30T11:40:33.165Z,6.5
2023-01-30T11:50:36.457Z,6.7
2023-01-30T12:00:37.264Z,6.7
2023-01-30T12:10:39.930Z,6.4
2023-01-30T12:20:41.957Z,6.9
2023-01-30T12:30:44.153Z,7
2023-01-30T12:40:47.048Z,7.2
2023-01-30T12:50:48.603Z,7
2023-01-30T13:00:50.843Z,7.2
2023-01-30T13:10:52.783Z,7.3
2023-01-30T13:20:55.400Z,7.4
2023-01-30T14:01:03.956Z,7.7
2023-01-30T14:31:09.743Z,7.5
2023-01-30T15:01:15.824Z,6.4
2023-01-30T15:11:17.856Z,6.2
2023-01-30T15:21:20.080Z,6.3
2023-01-30T15:31:22.118Z,6.4
2023-01-30T17:01:42.448Z,6.8
2023-01-30T19:32:15.321Z,5
2023-01-30T20:02:21.946Z,4.7
2023-01-30T20:12:24.585Z,4.5
2023-01-30T20:32:28.786Z,4.4
2023-01-30T20:52:32.605Z,4.3
2023-01-30T21:12:36.269Z,4.1
2023-01-30T21:22:38.173Z,4.2
2023-01-30T21:52:44.974Z,4.1
2023-01-30T22:12:49.060Z,4.2
2023-01-30T22:22:51.327Z,4.1
2023-01-30T22:32:53.331Z,3.9
2023-01-30T22:52:58.178Z,3.4
2023-01-30T23:03:00.309Z,3.2
2023-01-30T23:13:02.666Z,3.1
2023-01-30T23:23:04.543Z,2.9
2023-01-30T23:33:06.599Z,2.9
2023-01-30T23:43:09.233Z,2.8
2023-01-30T23:53:11.614Z,2.9
